Time;durP1;ratioP1;P1;durP2;ratioP2;P2;SDS_P1;SDS_P2;PMS_P1;PMS_P2;Temp;Humidity;BMP_temperature;BMP_pressure;BME280_temperature;BME280_humidity;BME280_pressure;Samples;Min_cycle;Max_cycle;Signal;HPM_P1;HPM_P2
2023/07/14 00:02:17;;;;;;;;;;;16.00;99.90;;;;;;5113269;28;19930;-43
2023/07/14 00:04:42;;;;;;;;;;;15.90;99.90;;;;;;5113901;28;20393;-43
2023/07/14 00:07:14;;;;;;;;;;;15.90;99.90;;;;;;5113818;28;19916;-42
2023/07/14 00:09:42;;;;;;;;;;;15.80;99.90;;;;;;5113052;28;20059;-43
2023/07/14 00:12:09;;;;;;;;;;;15.80;99.90;;;;;;5113775;28;20315;-44
2023/07/14 00:14:35;;;;;;;;;;;15.80;99.90;;;;;;5135917;27;19947;-43
2023/07/14 00:17:00;;;;;;;;;;;15.80;99.90;;;;;;5154158;27;19961;-43
2023/07/14 00:19:26;;;;;;;;;;;15.80;99.90;;;;;;5155157;27;19960;-43
2023/07/14 00:21:51;;;;;;;;;;;15.80;99.90;;;;;;5154967;27;19908;-44
2023/07/14 00:24:20;;;;;;;;;;;15.80;99.90;;;;;;5152262;27;20348;-44
2023/07/14 00:26:47;;;;;;;;;;;15.80;99.90;;;;;;5154666;27;19911;-42
2023/07/14 00:29:30;;;;;;;;;;;15.70;99.90;;;;;;5154923;27;19914;-44
2023/07/14 00:31:56;;;;;;;;;;;15.80;99.90;;;;;;5153995;27;19907;-45
2023/07/14 00:34:21;;;;;;;;;;;15.80;99.90;;;;;;5154935;27;19907;-46
2023/07/14 00:36:47;;;;;;;;;;;15.80;99.90;;;;;;5136821;27;20285;-43
2023/07/14 00:39:12;;;;;;;;;;;15.70;99.90;;;;;;5133232;27;20384;-43
2023/07/14 00:41:38;;;;;;;;;;;15.70;99.90;;;;;;5133715;27;19927;-42
2023/07/14 00:44:03;;;;;;;;;;;15.70;99.90;;;;;;5128153;27;19919;-42
2023/07/14 00:46:30;;;;;;;;;;;15.70;99.90;;;;;;5129332;27;19956;-44
2023/07/14 00:48:59;;;;;;;;;;;15.60;99.90;;;;;;5133750;27;20393;-45
2023/07/14 00:51:29;;;;;;;;;;;15.60;99.90;;;;;;5133889;27;19908;-42
2023/07/14 00:53:56;;;;;;;;;;;15.50;99.90;;;;;;5133629;27;20269;-43
2023/07/14 00:56:28;;;;;;;;;;;15.50;99.90;;;;;;5133852;27;19907;-42
2023/07/14 00:58:53;;;;;;;;;;;15.50;99.90;;;;;;5132590;27;19912;-44
2023/07/14 01:01:23;;;;;;;;;;;15.40;99.90;;;;;;5133347;27;20350;-42
2023/07/14 01:03:50;;;;;;;;;;;15.40;99.90;;;;;;5133664;28;19912;-42
2023/07/14 01:06:25;;;;;;;;;;;15.40;99.90;;;;;;5132746;28;19964;-43
2023/07/14 01:08:53;;;;;;;;;;;15.40;99.90;;;;;;5133674;28;19912;-42
2023/07/14 01:11:20;;;;;;;;;;;15.40;99.90;;;;;;5133681;28;19908;-42
2023/07/14 01:13:45;;;;;;;;;;;15.30;99.90;;;;;;5132522;27;19907;-41
2023/07/14 01:16:14;;;;;;;;;;;15.30;99.90;;;;;;5136475;27;20266;-41
2023/07/14 01:18:40;;;;;;;;;;;15.30;99.90;;;;;;5154165;27;19911;-43
2023/07/14 01:21:06;;;;;;;;;;;15.30;99.90;;;;;;5153514;27;19914;-44
2023/07/14 01:23:55;;;;;;;;;;;15.20;99.90;;;;;;5154187;27;20421;-42
2023/07/14 01:26:20;;;;;;;;;;;15.30;99.90;;;;;;5140169;27;19919;-43
2023/07/14 01:28:47;;;;;;;;;;;15.30;99.90;;;;;;5153457;27;19956;-42
2023/07/14 01:31:16;;;;;;;;;;;15.20;99.90;;;;;;5154020;27;19907;-43
2023/07/14 01:33:42;;;;;;;;;;;15.20;99.90;;;;;;5153294;27;19908;-43
2023/07/14 01:36:08;;;;;;;;;;;15.20;99.90;;;;;;5154140;27;19921;-45
2023/07/14 01:38:34;;;;;;;;;;;15.20;99.90;;;;;;5151984;27;19950;-42
2023/07/14 01:41:00;;;;;;;;;;;15.20;99.90;;;;;;5152575;27;19957;-42
2023/07/14 01:43:25;;;;;;;;;;;15.10;99.90;;;;;;5154016;27;19907;-43
2023/07/14 01:46:13;;;;;;;;;;;15.10;99.90;;;;;;5153904;27;19907;-42
2023/07/14 01:48:45;;;;;;;;;;;15.10;99.90;;;;;;5153180;27;19911;-43
2023/07/14 01:51:11;;;;;;;;;;;15.00;99.90;;;;;;5153956;27;19960;-42
2023/07/14 01:53:42;;;;;;;;;;;15.00;99.90;;;;;;5153987;27;19914;-43
2023/07/14 01:56:09;;;;;;;;;;;15.00;99.90;;;;;;5153220;27;19907;-43
2023/07/14 01:58:37;;;;;;;;;;;14.90;99.90;;;;;;5154038;27;19914;-43
2023/07/14 02:01:03;;;;;;;;;;;14.90;99.90;;;;;;5153947;27;19907;-43
2023/07/14 02:03:34;;;;;;;;;;;14.90;99.90;;;;;;5153096;27;19928;-44
2023/07/14 02:06:00;;;;;;;;;;;14.90;99.90;;;;;;5153638;27;19914;-42
2023/07/14 02:08:26;;;;;;;;;;;14.90;99.90;;;;;;5141225;27;19916;-42
2023/07/14 02:10:52;;;;;;;;;;;14.90;99.90;;;;;;5132491;27;20387;-43
2023/07/14 02:13:18;;;;;;;;;;;15.00;99.90;;;;;;5135801;27;19914;-41
2023/07/14 02:15:44;;;;;;;;;;;15.00;99.90;;;;;;5136575;27;20288;-43
2023/07/14 02:18:13;;;;;;;;;;;15.00;99.90;;;;;;5135794;27;19930;-42
2023/07/14 02:20:39;;;;;;;;;;;15.00;99.90;;;;;;5136551;27;19960;-42
2023/07/14 02:23:05;;;;;;;;;;;15.00;99.90;;;;;;5135703;27;19908;-44
2023/07/14 02:25:37;;;;;;;;;;;15.00;99.90;;;;;;5136467;27;19911;-42
2023/07/14 02:28:02;;;;;;;;;;;15.00;99.90;;;;;;5136449;27;19951;-43
2023/07/14 02:30:30;;;;;;;;;;;15.00;99.90;;;;;;5135616;27;19965;-42
2023/07/14 02:32:58;;;;;;;;;;;15.00;99.90;;;;;;5136225;27;20278;-42
2023/07/14 02:35:30;;;;;;;;;;;15.10;99.90;;;;;;5136468;27;19907;-43
2023/07/14 02:38:03;;;;;;;;;;;15.10;99.90;;;;;;5135392;27;20005;-43
2023/07/14 02:40:30;;;;;;;;;;;15.10;99.90;;;;;;5135934;27;19919;-41
2023/07/14 02:42:56;;;;;;;;;;;15.00;99.90;;;;;;5136109;27;19907;-42
2023/07/14 02:45:22;;;;;;;;;;;15.10;99.90;;;;;;5135594;27;19960;-43
2023/07/14 02:47:50;;;;;;;;;;;15.00;99.90;;;;;;5135939;27;19965;-43
2023/07/14 02:50:15;;;;;;;;;;;15.00;99.90;;;;;;5136040;27;20374;-41
2023/07/14 02:52:41;;;;;;;;;;;15.00;99.90;;;;;;5135105;27;20029;-44
2023/07/14 02:55:07;;;;;;;;;;;14.90;99.90;;;;;;5135895;27;19915;-42
2023/07/14 02:57:34;;;;;;;;;;;14.90;99.90;;;;;;5135979;27;19915;-42
2023/07/14 02:59:59;;;;;;;;;;;14.90;99.90;;;;;;5135249;27;19939;-41
2023/07/14 03:02:25;;;;;;;;;;;14.90;99.90;;;;;;5135549;27;20312;-42
2023/07/14 03:04:50;;;;;;;;;;;14.90;99.90;;;;;;5155887;27;20316;-42
2023/07/14 03:07:16;;;;;;;;;;;14.80;99.90;;;;;;5152340;27;20358;-43
2023/07/14 03:09:41;;;;;;;;;;;14.80;99.90;;;;;;5135741;27;19911;-42
2023/07/14 03:12:08;;;;;;;;;;;14.80;99.90;;;;;;5135307;27;19960;-42
2023/07/14 03:14:33;;;;;;;;;;;14.80;99.90;;;;;;5135495;27;19914;-42
2023/07/14 03:17:00;;;;;;;;;;;14.70;99.90;;;;;;5135042;27;19911;-42
2023/07/14 03:19:25;;;;;;;;;;;14.70;99.90;;;;;;5134643;27;19914;-43
2023/07/14 03:21:51;;;;;;;;;;;14.70;99.90;;;;;;5135420;27;19912;-43
2023/07/14 03:24:17;;;;;;;;;;;14.70;99.90;;;;;;5135123;27;19954;-42
2023/07/14 03:26:42;;;;;;;;;;;14.70;99.90;;;;;;5134457;27;19918;-43
2023/07/14 03:29:08;;;;;;;;;;;14.70;99.90;;;;;;5135408;27;19949;-41
2023/07/14 03:31:33;;;;;;;;;;;14.70;99.90;;;;;;5135148;27;20282;-42
2023/07/14 03:33:59;;;;;;;;;;;14.70;99.90;;;;;;5134349;27;19908;-41
2023/07/14 03:36:25;;;;;;;;;;;14.70;99.90;;;;;;5135135;27;19908;-41
2023/07/14 03:39:11;;;;;;;;;;;14.70;99.90;;;;;;5119366;27;20111;-42
2023/07/14 03:41:36;;;;;;;;;;;14.70;99.90;;;;;;5082241;28;19965;-42
2023/07/14 03:44:02;;;;;;;;;;;14.70;99.90;;;;;;5094078;28;19912;-44
2023/07/14 03:46:27;;;;;;;;;;;14.70;99.90;;;;;;5093583;28;19915;-42
2023/07/14 03:48:53;;;;;;;;;;;14.70;99.90;;;;;;5093127;28;19918;-42
2023/07/14 03:51:18;;;;;;;;;;;14.70;99.90;;;;;;5094010;28;20003;-42
2023/07/14 03:53:44;;;;;;;;;;;14.80;99.90;;;;;;5093858;28;19908;-42
2023/07/14 03:56:10;;;;;;;;;;;14.80;99.90;;;;;;5092943;28;20309;-42
2023/07/14 03:58:35;;;;;;;;;;;14.80;99.90;;;;;;5093628;28;19908;-41
2023/07/14 04:01:01;;;;;;;;;;;14.80;99.90;;;;;;5093556;28;20022;-41
2023/07/14 04:03:27;;;;;;;;;;;14.80;99.90;;;;;;5092925;28;19916;-42
2023/07/14 04:05:52;;;;;;;;;;;14.80;99.90;;;;;;5093547;28;19922;-42
2023/07/14 04:08:18;;;;;;;;;;;14.80;99.90;;;;;;5102885;28;20044;-42
2023/07/14 04:10:43;;;;;;;;;;;14.80;99.90;;;;;;5113120;28;19959;-42
2023/07/14 04:13:10;;;;;;;;;;;14.80;99.90;;;;;;5113878;28;19976;-41
2023/07/14 04:15:35;;;;;;;;;;;14.80;99.90;;;;;;5112732;28;19915;-44
2023/07/14 04:18:01;;;;;;;;;;;14.90;99.90;;;;;;5106399;28;19916;-42
2023/07/14 04:20:27;;;;;;;;;;;14.80;99.90;;;;;;5105507;28;19914;-42
2023/07/14 04:22:52;;;;;;;;;;;14.80;99.90;;;;;;5112855;28;19999;-42
2023/07/14 04:25:17;;;;;;;;;;;14.80;99.90;;;;;;5113727;28;19961;-45
2023/07/14 04:27:43;;;;;;;;;;;14.80;99.90;;;;;;5109531;28;19923;-43
2023/07/14 04:30:09;;;;;;;;;;;14.80;99.90;;;;;;5092398;28;20355;-42
2023/07/14 04:32:34;;;;;;;;;;;14.90;99.90;;;;;;5093120;28;19908;-43
2023/07/14 04:35:00;;;;;;;;;;;14.90;99.90;;;;;;5092393;28;19914;-42
2023/07/14 04:37:26;;;;;;;;;;;14.90;99.90;;;;;;5093814;28;19915;-43
2023/07/14 04:39:51;;;;;;;;;;;14.90;99.90;;;;;;5116267;27;20024;-42
2023/07/14 04:42:17;;;;;;;;;;;14.90;99.90;;;;;;5115702;27;20333;-42
2023/07/14 04:44:42;;;;;;;;;;;14.90;99.90;;;;;;5133394;27;19907;-41
2023/07/14 04:47:08;;;;;;;;;;;14.90;99.90;;;;;;5133600;27;20004;-43
2023/07/14 04:49:34;;;;;;;;;;;14.90;99.90;;;;;;5133971;27;20392;-43
2023/07/14 04:52:00;;;;;;;;;;;14.90;99.90;;;;;;5116754;27;19912;-42
2023/07/14 04:54:26;;;;;;;;;;;15.00;99.90;;;;;;5121041;28;19907;-42
2023/07/14 04:56:51;;;;;;;;;;;15.00;99.90;;;;;;5133636;27;19907;-41
2023/07/14 04:59:17;;;;;;;;;;;15.00;99.90;;;;;;5133074;28;19915;-42
2023/07/14 05:01:43;;;;;;;;;;;15.10;99.90;;;;;;5115959;28;19919;-42
2023/07/14 05:04:08;;;;;;;;;;;15.20;99.90;;;;;;5126162;28;19908;-44
2023/07/14 05:06:34;;;;;;;;;;;15.30;99.90;;;;;;5114401;28;19957;-43
2023/07/14 05:09:00;;;;;;;;;;;15.30;99.90;;;;;;5127631;27;19911;-41
2023/07/14 05:11:26;;;;;;;;;;;15.40;99.90;;;;;;5133646;28;19994;-44
2023/07/14 05:13:51;;;;;;;;;;;15.50;99.90;;;;;;5132802;28;19915;-45
2023/07/14 05:16:17;;;;;;;;;;;15.60;99.90;;;;;;5128763;27;19920;-41
2023/07/14 05:18:43;;;;;;;;;;;15.70;99.90;;;;;;5112768;28;19974;-44
2023/07/14 05:21:08;;;;;;;;;;;15.70;99.90;;;;;;5112622;28;19908;-41
2023/07/14 05:23:34;;;;;;;;;;;15.90;99.90;;;;;;5112969;28;20006;-43
2023/07/14 05:26:00;;;;;;;;;;;15.90;99.90;;;;;;5111981;28;19951;-43
2023/07/14 05:28:25;;;;;;;;;;;16.00;99.90;;;;;;5113001;28;19912;-42
2023/07/14 05:30:51;;;;;;;;;;;16.10;99.90;;;;;;5112966;28;19949;-44
2023/07/14 05:33:18;;;;;;;;;;;16.10;99.90;;;;;;5112236;28;19961;-42
2023/07/14 05:35:44;;;;;;;;;;;16.20;99.90;;;;;;5112780;28;19908;-44
2023/07/14 05:38:09;;;;;;;;;;;16.20;99.90;;;;;;5126847;27;19955;-41
2023/07/14 05:40:35;;;;;;;;;;;16.20;99.90;;;;;;5153061;27;19919;-42
2023/07/14 05:43:00;;;;;;;;;;;16.20;99.90;;;;;;5153902;27;19930;-42
2023/07/14 05:45:26;;;;;;;;;;;16.30;99.90;;;;;;5154007;27;19930;-44
2023/07/14 05:47:51;;;;;;;;;;;16.30;99.90;;;;;;5145444;27;20392;-41
2023/07/14 05:50:17;;;;;;;;;;;16.30;99.90;;;;;;5138311;27;19908;-42
2023/07/14 05:52:43;;;;;;;;;;;16.30;99.90;;;;;;5141636;27;20002;-43
2023/07/14 05:55:09;;;;;;;;;;;16.30;99.90;;;;;;5157191;27;19907;-42
2023/07/14 05:57:37;;;;;;;;;;;16.30;99.90;;;;;;5157941;27;20339;-43
2023/07/14 06:00:12;;;;;;;;;;;16.30;99.90;;;;;;5137936;27;20278;-42
2023/07/14 06:02:39;;;;;;;;;;;16.40;99.90;;;;;;5135091;27;19919;-41
2023/07/14 06:05:05;;;;;;;;;;;16.40;99.90;;;;;;5136999;27;19933;-42
2023/07/14 06:07:31;;;;;;;;;;;16.40;99.90;;;;;;5136968;27;19915;-42
2023/07/14 06:09:56;;;;;;;;;;;16.50;99.90;;;;;;5135942;27;20372;-43
2023/07/14 06:12:22;;;;;;;;;;;16.50;99.90;;;;;;5142821;27;20010;-42
2023/07/14 06:14:48;;;;;;;;;;;16.60;99.90;;;;;;5133331;27;19950;-42
2023/07/14 06:17:13;;;;;;;;;;;16.60;99.90;;;;;;5131563;27;19999;-46
2023/07/14 06:19:39;;;;;;;;;;;16.60;99.90;;;;;;5130999;27;20165;-44
2023/07/14 06:22:06;;;;;;;;;;;16.60;99.90;;;;;;5129547;27;20354;-42
2023/07/14 06:24:32;;;;;;;;;;;16.60;99.90;;;;;;5133313;27;19911;-45
2023/07/14 06:26:58;;;;;;;;;;;16.60;99.90;;;;;;5135679;27;19951;-43
2023/07/14 06:29:23;;;;;;;;;;;16.60;99.90;;;;;;5135112;27;19958;-44
2023/07/14 06:31:49;;;;;;;;;;;16.70;99.90;;;;;;5137557;27;20210;-43
2023/07/14 06:34:14;;;;;;;;;;;16.70;99.90;;;;;;5157236;27;19907;-41
2023/07/14 06:36:40;;;;;;;;;;;16.80;99.90;;;;;;5140728;27;19912;-43
2023/07/14 06:39:07;;;;;;;;;;;16.80;99.90;;;;;;5130108;27;19911;-42
2023/07/14 06:41:32;;;;;;;;;;;16.90;99.90;;;;;;5146586;27;20424;-42
2023/07/14 06:44:00;;;;;;;;;;;17.00;99.90;;;;;;5145440;27;19946;-44
2023/07/14 06:46:26;;;;;;;;;;;17.10;99.90;;;;;;5145987;27;19927;-43
2023/07/14 06:48:51;;;;;;;;;;;17.10;99.90;;;;;;5147475;27;19911;-42
2023/07/14 06:51:17;;;;;;;;;;;17.10;99.90;;;;;;5133180;27;19919;-41
2023/07/14 06:53:42;;;;;;;;;;;17.20;99.90;;;;;;5131473;27;20012;-42
2023/07/14 06:56:08;;;;;;;;;;;17.20;99.90;;;;;;5135668;27;19911;-42
2023/07/14 06:58:34;;;;;;;;;;;17.30;99.90;;;;;;5143769;27;20301;-41
2023/07/14 07:01:00;;;;;;;;;;;17.40;99.90;;;;;;5138117;27;20285;-46
2023/07/14 07:03:25;;;;;;;;;;;17.50;99.90;;;;;;5141524;27;19926;-42
2023/07/14 07:05:51;;;;;;;;;;;17.50;99.90;;;;;;5126586;27;20516;-42
2023/07/14 07:08:17;;;;;;;;;;;17.60;99.90;;;;;;5137149;27;19923;-42
2023/07/14 07:10:43;;;;;;;;;;;17.70;99.90;;;;;;5136181;27;20308;-42
2023/07/14 07:13:09;;;;;;;;;;;17.70;99.90;;;;;;5146121;27;20357;-41
2023/07/14 07:15:34;;;;;;;;;;;17.80;99.90;;;;;;5135253;27;19912;-43
2023/07/14 07:18:00;;;;;;;;;;;17.90;99.90;;;;;;5140105;27;20379;-42
2023/07/14 07:20:25;;;;;;;;;;;17.90;99.90;;;;;;5131831;27;19915;-42
2023/07/14 07:22:51;;;;;;;;;;;18.00;99.90;;;;;;5123393;27;20297;-42
2023/07/14 07:25:16;;;;;;;;;;;18.10;99.90;;;;;;5121431;27;19943;-42
2023/07/14 07:27:43;;;;;;;;;;;18.10;99.90;;;;;;5135962;27;20257;-41
2023/07/14 07:30:09;;;;;;;;;;;18.20;99.90;;;;;;5143783;27;19911;-42
2023/07/14 07:32:35;;;;;;;;;;;18.30;99.90;;;;;;5134401;27;19912;-41
2023/07/14 07:35:01;;;;;;;;;;;18.30;99.90;;;;;;5135036;27;20008;-41
2023/07/14 07:37:26;;;;;;;;;;;18.30;99.90;;;;;;5135220;27;19955;-42
2023/07/14 07:39:54;;;;;;;;;;;18.40;99.90;;;;;;5133979;27;19911;-44
2023/07/14 07:42:19;;;;;;;;;;;18.50;99.90;;;;;;5135158;27;19908;-45
2023/07/14 07:44:45;;;;;;;;;;;18.60;99.90;;;;;;5134994;27;19914;-42
2023/07/14 07:47:12;;;;;;;;;;;18.60;99.90;;;;;;5134001;27;19981;-41
2023/07/14 07:49:38;;;;;;;;;;;18.70;99.90;;;;;;5127228;27;20006;-41
2023/07/14 07:52:04;;;;;;;;;;;18.80;99.90;;;;;;5124562;27;20463;-42
2023/07/14 07:54:30;;;;;;;;;;;18.90;99.90;;;;;;5121948;27;19907;-42
2023/07/14 07:56:55;;;;;;;;;;;18.90;99.90;;;;;;5118551;27;19942;-41
2023/07/14 07:59:21;;;;;;;;;;;18.90;99.90;;;;;;5115385;27;19916;-44
2023/07/14 08:01:47;;;;;;;;;;;19.00;99.90;;;;;;5127130;27;19911;-43
2023/07/14 08:04:13;;;;;;;;;;;19.00;99.90;;;;;;5120531;27;19912;-42
2023/07/14 08:06:38;;;;;;;;;;;19.10;99.90;;;;;;5126302;27;19923;-43
2023/07/14 08:09:04;;;;;;;;;;;19.10;99.90;;;;;;5132863;27;19907;-42
2023/07/14 08:11:30;;;;;;;;;;;19.20;99.90;;;;;;5124141;27;19919;-42
2023/07/14 08:13:58;;;;;;;;;;;19.20;99.90;;;;;;5120883;27;19912;-41
2023/07/14 08:16:24;;;;;;;;;;;19.20;99.90;;;;;;5125795;27;20361;-41
2023/07/14 08:18:50;;;;;;;;;;;19.30;99.90;;;;;;5127227;27;19916;-43
2023/07/14 08:21:16;;;;;;;;;;;19.40;99.90;;;;;;5121785;27;19965;-41
2023/07/14 08:23:42;;;;;;;;;;;19.50;99.90;;;;;;5120290;27;19920;-43
2023/07/14 08:26:08;;;;;;;;;;;19.50;99.90;;;;;;5114708;28;19915;-43
2023/07/14 08:28:34;;;;;;;;;;;19.70;99.90;;;;;;5120528;27;19957;-42
2023/07/14 08:31:06;;;;;;;;;;;19.80;99.90;;;;;;5128390;27;19957;-44
2023/07/14 08:33:32;;;;;;;;;;;19.90;99.90;;;;;;5135039;27;19915;-42
2023/07/14 08:36:00;;;;;;;;;;;20.00;99.90;;;;;;5120480;27;19938;-42
2023/07/14 08:38:27;;;;;;;;;;;20.00;99.90;;;;;;5119956;27;19912;-43
2023/07/14 08:41:11;;;;;;;;;;;20.00;99.90;;;;;;5124205;27;19927;-42
2023/07/14 08:43:43;;;;;;;;;;;20.00;99.90;;;;;;5123270;27;20031;-42
2023/07/14 08:46:28;;;;;;;;;;;20.00;99.90;;;;;;5125330;27;20290;-41
2023/07/14 08:49:04;;;;;;;;;;;20.00;99.90;;;;;;5111896;27;19916;-42
2023/07/14 08:51:38;;;;;;;;;;;20.00;99.90;;;;;;5134441;27;19915;-43
2023/07/14 08:54:08;;;;;;;;;;;20.00;99.90;;;;;;5155326;27;19911;-42
2023/07/14 08:56:35;;;;;;;;;;;20.00;99.90;;;;;;5155157;27;19908;-42
2023/07/14 08:59:01;;;;;;;;;;;20.00;99.90;;;;;;5154642;27;19942;-42
2023/07/14 09:01:34;;;;;;;;;;;20.10;99.90;;;;;;5138110;27;19967;-43
2023/07/14 09:04:04;;;;;;;;;;;20.20;99.90;;;;;;5153901;27;19965;-41
2023/07/14 09:06:34;;;;;;;;;;;20.40;99.90;;;;;;5155129;27;19962;-43
2023/07/14 09:09:00;;;;;;;;;;;20.50;99.90;;;;;;5155263;27;20043;-42
2023/07/14 09:11:25;;;;;;;;;;;20.60;99.90;;;;;;5154160;27;19993;-42
2023/07/14 09:13:57;;;;;;;;;;;20.70;99.90;;;;;;5154837;27;19914;-43
2023/07/14 09:16:23;;;;;;;;;;;20.80;99.90;;;;;;5133460;27;20006;-42
2023/07/14 09:18:49;;;;;;;;;;;20.90;99.90;;;;;;5125240;28;20281;-42
2023/07/14 09:21:14;;;;;;;;;;;21.00;99.90;;;;;;5128120;27;19911;-42
2023/07/14 09:23:57;;;;;;;;;;;21.10;99.90;;;;;;5125817;27;20357;-42
2023/07/14 09:26:29;;;;;;;;;;;21.10;99.90;;;;;;5124627;27;19931;-41
2023/07/14 09:28:55;;;;;;;;;;;21.20;99.90;;;;;;5119659;27;19939;-42
2023/07/14 09:31:40;;;;;;;;;;;21.20;99.90;;;;;;5116854;28;19951;-46
2023/07/14 09:34:29;;;;;;;;;;;21.10;99.90;;;;;;5119595;27;19919;-42
2023/07/14 09:36:56;;;;;;;;;;;20.90;99.90;;;;;;5107088;27;19980;-43
2023/07/14 09:39:26;;;;;;;;;;;20.90;99.90;;;;;;5132472;27;19915;-42
2023/07/14 09:41:53;;;;;;;;;;;21.00;99.90;;;;;;5137697;27;19923;-42
2023/07/14 09:44:19;;;;;;;;;;;21.20;99.90;;;;;;5131819;27;20014;-41
2023/07/14 09:46:47;;;;;;;;;;;21.30;99.90;;;;;;5123682;27;20002;-41
2023/07/14 09:49:22;;;;;;;;;;;21.40;99.90;;;;;;5127952;27;19950;-42
2023/07/14 09:52:25;;;;;;;;;;;21.50;99.90;;;;;;5135854;27;19907;-42
2023/07/14 09:54:58;;;;;;;;;;;21.70;99.90;;;;;;5092587;27;19922;-42
2023/07/14 09:57:32;;;;;;;;;;;21.90;99.90;;;;;;5131317;27;19912;-42
2023/07/14 09:59:59;;;;;;;;;;;22.10;99.90;;;;;;5126077;27;19961;-41
2023/07/14 10:02:26;;;;;;;;;;;22.10;99.90;;;;;;5125382;27;19920;-43
2023/07/14 10:04:54;;;;;;;;;;;22.00;99.90;;;;;;5126706;27;19907;-43
2023/07/14 10:07:20;;;;;;;;;;;21.80;99.90;;;;;;5119510;27;20330;-43
2023/07/14 10:09:59;;;;;;;;;;;21.60;99.90;;;;;;5129640;27;19947;-42
2023/07/14 10:12:25;;;;;;;;;;;21.30;99.90;;;;;;5120240;27;19934;-42
2023/07/14 10:14:51;;;;;;;;;;;21.10;99.90;;;;;;5136725;27;19915;-44
2023/07/14 10:17:25;;;;;;;;;;;21.10;99.90;;;;;;5135770;27;19908;-42
2023/07/14 10:19:51;;;;;;;;;;;21.20;99.90;;;;;;5133107;27;20075;-43
2023/07/14 10:22:22;;;;;;;;;;;21.20;99.90;;;;;;5119131;27;20351;-42
2023/07/14 10:24:54;;;;;;;;;;;21.30;99.90;;;;;;5116677;28;19964;-42
2023/07/14 10:27:23;;;;;;;;;;;21.40;99.90;;;;;;5124589;27;20353;-42
2023/07/14 10:29:50;;;;;;;;;;;21.40;99.90;;;;;;5116126;28;19912;-43
2023/07/14 10:32:25;;;;;;;;;;;21.50;99.90;;;;;;5117272;27;19907;-41
2023/07/14 10:34:50;;;;;;;;;;;21.70;99.90;;;;;;5134151;27;20310;-42
2023/07/14 10:37:21;;;;;;;;;;;21.90;99.90;;;;;;5131427;27;19922;-43
2023/07/14 10:39:49;;;;;;;;;;;22.10;99.90;;;;;;5125169;27;19918;-44
2023/07/14 10:42:18;;;;;;;;;;;22.00;99.90;;;;;;5127769;27;20353;-46
2023/07/14 10:44:44;;;;;;;;;;;22.00;99.90;;;;;;5120653;27;19957;-43
2023/07/14 10:47:16;;;;;;;;;;;21.90;99.90;;;;;;5119658;27;21495;-43
2023/07/14 10:49:47;;;;;;;;;;;21.70;99.90;;;;;;5124729;27;19919;-41
2023/07/14 10:52:18;;;;;;;;;;;21.60;99.90;;;;;;5122839;27;20384;-44
2023/07/14 10:54:50;;;;;;;;;;;21.50;99.90;;;;;;5124763;27;20339;-43
2023/07/14 10:57:28;;;;;;;;;;;21.30;99.90;;;;;;5128585;27;19919;-41
2023/07/14 11:00:15;;;;;;;;;;;21.30;99.90;;;;;;5128897;27;19995;-42
2023/07/14 11:02:42;;;;;;;;;;;21.30;99.90;;;;;;5120344;27;19919;-42
2023/07/14 11:05:13;;;;;;;;;;;21.50;99.90;;;;;;5116519;27;19919;-42
2023/07/14 11:07:38;;;;;;;;;;;21.80;99.90;;;;;;5117549;27;19923;-41
2023/07/14 11:10:12;;;;;;;;;;;22.10;99.90;;;;;;5119980;27;19934;-42
2023/07/14 11:12:41;;;;;;;;;;;22.50;99.90;;;;;;5116918;27;19916;-42
2023/07/14 11:15:18;;;;;;;;;;;22.70;99.90;;;;;;5124292;27;19955;-43
2023/07/14 11:17:51;;;;;;;;;;;22.80;99.90;;;;;;5118277;27;19973;-41
2023/07/14 11:20:35;;;;;;;;;;;22.90;99.90;;;;;;5118722;27;19912;-42
2023/07/14 11:23:19;;;;;;;;;;;22.90;99.90;;;;;;5119628;27;19919;-43
2023/07/14 11:25:49;;;;;;;;;;;22.70;99.90;;;;;;5117713;27;19912;-43
2023/07/14 11:28:24;;;;;;;;;;;22.50;99.90;;;;;;5124033;27;19935;-42
2023/07/14 11:30:51;;;;;;;;;;;22.40;99.90;;;;;;5116634;27;19916;-43
2023/07/14 11:33:20;;;;;;;;;;;22.40;99.90;;;;;;5121046;27;19912;-41
2023/07/14 11:35:57;;;;;;;;;;;22.50;99.90;;;;;;5122850;27;19918;-43
2023/07/14 11:38:29;;;;;;;;;;;22.50;99.90;;;;;;5121675;27;19912;-43
2023/07/14 11:40:55;;;;;;;;;;;22.40;99.90;;;;;;5123213;27;20081;-42
2023/07/14 11:43:22;;;;;;;;;;;22.30;99.90;;;;;;5118971;27;19916;-42
2023/07/14 11:45:57;;;;;;;;;;;22.30;99.90;;;;;;5116487;27;20374;-42
2023/07/14 11:48:24;;;;;;;;;;;22.20;99.90;;;;;;5122926;27;19923;-41
2023/07/14 11:51:03;;;;;;;;;;;22.30;99.90;;;;;;5122795;27;21435;-42
2023/07/14 11:53:31;;;;;;;;;;;22.50;99.90;;;;;;5123359;27;19957;-42
2023/07/14 11:56:10;;;;;;;;;;;22.60;99.90;;;;;;5122827;27;19957;-41
2023/07/14 11:58:36;;;;;;;;;;;22.80;99.90;;;;;;5124865;27;19918;-43
2023/07/14 12:01:13;;;;;;;;;;;22.90;99.90;;;;;;5121725;27;19912;-41
2023/07/14 12:03:40;;;;;;;;;;;22.90;99.90;;;;;;5117232;27;19964;-42
2023/07/14 12:06:18;;;;;;;;;;;22.90;99.90;;;;;;5126146;27;19998;-43
2023/07/14 12:08:44;;;;;;;;;;;22.90;99.90;;;;;;5120992;27;19920;-43
2023/07/14 12:11:23;;;;;;;;;;;22.90;99.60;;;;;;5120136;27;19919;-42
2023/07/14 12:13:50;;;;;;;;;;;22.80;99.90;;;;;;5119579;27;19911;-41
2023/07/14 12:16:22;;;;;;;;;;;22.80;99.70;;;;;;5125105;27;19915;-41
2023/07/14 12:18:56;;;;;;;;;;;22.70;99.80;;;;;;5117353;27;20354;-41
2023/07/14 12:21:33;;;;;;;;;;;22.60;99.90;;;;;;5116620;27;21826;-41
2023/07/14 12:24:11;;;;;;;;;;;22.50;99.90;;;;;;5108855;27;19976;-43
2023/07/14 12:26:39;;;;;;;;;;;22.50;99.90;;;;;;5126700;27;19922;-45
2023/07/14 12:29:12;;;;;;;;;;;22.50;99.90;;;;;;5117432;27;19919;-42
2023/07/14 12:31:38;;;;;;;;;;;22.40;99.90;;;;;;5117202;27;20389;-43
2023/07/14 12:34:03;;;;;;;;;;;22.40;99.90;;;;;;5116708;27;19911;-44
2023/07/14 12:36:29;;;;;;;;;;;22.30;99.90;;;;;;5118753;27;19912;-42
2023/07/14 12:38:55;;;;;;;;;;;22.30;99.90;;;;;;5121808;27;19911;-43
2023/07/14 12:41:23;;;;;;;;;;;22.30;99.90;;;;;;5116434;27;19920;-46
2023/07/14 12:43:50;;;;;;;;;;;22.60;99.90;;;;;;5123824;27;20278;-43
2023/07/14 12:46:31;;;;;;;;;;;22.80;99.90;;;;;;5127786;27;20380;-43
2023/07/14 12:49:17;;;;;;;;;;;22.90;99.90;;;;;;5113485;27;20275;-41
2023/07/14 12:51:43;;;;;;;;;;;23.00;99.90;;;;;;5101950;27;19988;-47
2023/07/14 12:54:22;;;;;;;;;;;23.20;99.90;;;;;;5122244;27;20314;-44
2023/07/14 12:56:47;;;;;;;;;;;23.50;99.90;;;;;;5116321;27;19915;-44
2023/07/14 12:59:14;;;;;;;;;;;23.80;99.90;;;;;;5129352;27;20276;-43
2023/07/14 13:01:43;;;;;;;;;;;23.70;99.90;;;;;;5117557;27;19911;-42
2023/07/14 13:04:10;;;;;;;;;;;23.70;99.90;;;;;;5153491;27;20317;-43
2023/07/14 13:06:36;;;;;;;;;;;23.60;99.40;;;;;;5124228;27;19916;-42
2023/07/14 13:09:07;;;;;;;;;;;23.60;99.90;;;;;;5117735;28;20066;-41
2023/07/14 13:11:35;;;;;;;;;;;23.60;99.90;;;;;;5125915;28;19911;-43
2023/07/14 13:14:02;;;;;;;;;;;23.50;99.90;;;;;;5132268;28;19919;-43
2023/07/14 13:16:30;;;;;;;;;;;23.60;99.90;;;;;;5129399;28;20378;-43
2023/07/14 13:18:58;;;;;;;;;;;23.50;99.90;;;;;;5114910;28;19911;-42
2023/07/14 13:21:37;;;;;;;;;;;23.60;99.90;;;;;;5117895;27;19984;-43
2023/07/14 13:24:08;;;;;;;;;;;23.60;99.90;;;;;;5116370;28;19912;-44
2023/07/14 13:26:46;;;;;;;;;;;23.50;99.90;;;;;;5122352;28;19915;-43
2023/07/14 13:29:14;;;;;;;;;;;23.50;99.90;;;;;;5122303;28;19954;-41
2023/07/14 13:31:40;;;;;;;;;;;23.40;99.90;;;;;;5119918;28;19911;-42
2023/07/14 13:34:22;;;;;;;;;;;23.30;99.90;;;;;;5123221;28;19911;-43
2023/07/14 13:36:49;;;;;;;;;;;23.20;99.90;;;;;;5112877;28;20003;-41
2023/07/14 13:39:27;;;;;;;;;;;23.10;99.90;;;;;;5119346;28;19911;-43
2023/07/14 13:41:55;;;;;;;;;;;23.00;99.90;;;;;;5110085;28;19926;-42
2023/07/14 13:44:35;;;;;;;;;;;22.90;99.90;;;;;;5108928;28;19916;-42
2023/07/14 13:47:09;;;;;;;;;;;22.90;99.90;;;;;;5099737;28;20565;-41
2023/07/14 13:49:34;;;;;;;;;;;22.80;99.90;;;;;;5103306;28;19912;-42
2023/07/14 13:52:00;;;;;;;;;;;22.80;99.90;;;;;;5099391;28;19926;-43
2023/07/14 13:54:29;;;;;;;;;;;22.90;99.90;;;;;;5097404;28;19912;-45
2023/07/14 13:56:55;;;;;;;;;;;22.90;99.90;;;;;;5091718;28;19923;-43
2023/07/14 13:59:20;;;;;;;;;;;22.80;99.90;;;;;;5098517;28;20385;-42
2023/07/14 14:01:46;;;;;;;;;;;22.90;99.90;;;;;;5099998;28;19966;-45
2023/07/14 14:04:13;;;;;;;;;;;22.90;99.90;;;;;;5095761;28;19923;-43
2023/07/14 14:06:39;;;;;;;;;;;23.10;99.90;;;;;;5095048;28;19920;-43
2023/07/14 14:09:18;;;;;;;;;;;23.20;99.90;;;;;;5102018;28;20369;-41
2023/07/14 14:11:46;;;;;;;;;;;23.50;99.90;;;;;;5099056;28;19919;-42
2023/07/14 14:14:12;;;;;;;;;;;23.60;99.90;;;;;;5096760;28;19916;-42
2023/07/14 14:16:37;;;;;;;;;;;23.70;99.90;;;;;;5097102;28;19908;-46
2023/07/14 14:19:05;;;;;;;;;;;23.80;99.90;;;;;;5099844;28;20002;-42
2023/07/14 14:21:31;;;;;;;;;;;24.00;99.90;;;;;;5108881;27;20018;-41
2023/07/14 14:23:57;;;;;;;;;;;24.10;99.90;;;;;;5104714;28;19919;-43